createdAt,value
2024-03-16T00:00:00.425Z,90.33
2024-03-16T00:05:00.423Z,90.79
2024-03-16T00:10:01.196Z,91.81
2024-03-16T00:15:00.514Z,92.46
2024-03-16T00:20:00.531Z,92.67
2024-03-16T00:25:00.840Z,92.87
2024-03-16T00:30:00.675Z,93.23
2024-03-16T00:35:00.398Z,93.84
2024-03-16T00:40:00.946Z,94.46
2024-03-16T00:45:00.766Z,94.36
2024-03-16T00:50:00.445Z,94.56
2024-03-16T00:55:00.660Z,93.95
2024-03-16T01:00:00.522Z,94.09
2024-03-16T01:05:00.440Z,94.3
2024-03-16T01:10:00.853Z,94.85
2024-03-16T01:15:00.547Z,95.47
2024-03-16T01:20:00.408Z,95.16
2024-03-16T01:25:00.784Z,95.93
2024-03-16T01:30:00.491Z,95.93
2024-03-16T01:35:00.375Z,95.93
2024-03-16T01:40:00.775Z,96.33
2024-03-16T01:45:00.470Z,96.13
2024-03-16T01:50:00.581Z,96.48
2024-03-16T01:55:00.747Z,96.28
2024-03-16T02:00:00.502Z,96.32
2024-03-16T02:05:00.432Z,96.73
2024-03-16T02:10:00.784Z,97.09
2024-03-16T02:15:00.407Z,97.09
2024-03-16T02:20:00.406Z,97.85
2024-03-16T02:25:00.706Z,97.65
2024-03-16T02:30:00.504Z,98.26
2024-03-16T02:35:00.398Z,98.72
2024-03-16T02:40:00.796Z,98.62
2024-03-16T02:45:00.606Z,99.65
2024-03-16T02:50:00.424Z,99.86
2024-03-16T02:55:00.823Z,99.65
2024-03-16T03:00:00.510Z,99.86
2024-03-16T03:05:00.396Z,99.7
2024-03-16T03:10:00.916Z,99.29
2024-03-16T03:15:00.486Z,98.78
2024-03-16T03:20:00.372Z,98.98
2024-03-16T03:25:00.942Z,99.34
2024-03-16T03:30:00.486Z,99.14
2024-03-16T03:35:00.604Z,99.18
2024-03-16T03:40:00.964Z,99.7
2024-03-16T03:45:00.392Z,99.74
2024-03-16T03:50:00.433Z,99.99
2024-03-16T03:55:00.664Z,99.99
2024-03-16T04:00:00.492Z,99.99
2024-03-16T04:05:00.399Z,99.99
2024-03-16T04:10:00.889Z,99.99
2024-03-16T04:15:00.454Z,99.99
2024-03-16T04:20:00.600Z,99.99
2024-03-16T04:25:00.668Z,99.99
2024-03-16T04:30:00.544Z,99.99
2024-03-16T04:35:00.508Z,99.99
2024-03-16T04:40:00.942Z,99.99
2024-03-16T04:45:01.051Z,99.99
2024-03-16T04:50:00.788Z,99.99
2024-03-16T04:55:00.875Z,99.99
2024-03-16T05:00:00.479Z,99.99
2024-03-16T05:05:00.516Z,99.99
2024-03-16T05:10:00.789Z,99.99
2024-03-16T05:15:00.398Z,99.99
2024-03-16T05:20:00.541Z,99.99
2024-03-16T05:25:00.616Z,99.99
2024-03-16T05:30:00.625Z,99.99
2024-03-16T05:35:00.370Z,99.99
2024-03-16T05:40:00.926Z,99.99
2024-03-16T05:45:01.125Z,99.99
2024-03-16T05:50:00.465Z,99.99
2024-03-16T05:55:00.749Z,99.6
2024-03-16T06:00:00.705Z,99.6
2024-03-16T06:05:00.486Z,99.91
2024-03-16T06:10:00.790Z,99.7
2024-03-16T06:15:00.687Z,99.5
2024-03-16T06:20:00.425Z,99.56
2024-03-16T06:25:00.759Z,99.66
2024-03-16T06:30:00.547Z,99.56
2024-03-16T06:35:00.450Z,99.56
2024-03-16T06:40:00.907Z,99.51
2024-03-16T06:45:00.473Z,99.4
2024-03-16T06:50:00.388Z,99.61
2024-03-16T06:55:00.818Z,99.36
2024-03-16T07:00:00.600Z,98.7
2024-03-16T07:05:00.414Z,98.86
2024-03-16T07:10:00.784Z,98.4
2024-03-16T07:15:00.419Z,97.33
2024-03-16T07:20:00.457Z,96.46
2024-03-16T07:25:00.642Z,96.21
2024-03-16T07:30:00.500Z,95.25
2024-03-16T07:35:00.372Z,93.62
2024-03-16T07:40:00.748Z,93.11
2024-03-16T07:45:00.442Z,94.19
2024-03-16T07:50:00.438Z,93.89
2024-03-16T07:55:00.736Z,91.7
2024-03-16T08:00:00.632Z,90.98
2024-03-16T08:05:00.534Z,90.22
2024-03-16T08:10:00.827Z,90.22
2024-03-16T08:15:00.548Z,90.38
2024-03-16T08:20:00.495Z,90.79
2024-03-16T08:25:00.688Z,90.65
2024-03-16T08:30:00.838Z,89.49
2024-03-16T08:35:00.400Z,91.79
2024-03-16T08:40:01.321Z,90.98
2024-03-16T08:45:00.791Z,90.52
2024-03-16T08:50:00.629Z,89.87
2024-03-16T08:55:00.860Z,88.81
2024-03-16T09:00:00.995Z,87.79
2024-03-16T09:05:00.412Z,87.04
2024-03-16T09:10:00.927Z,84.96
2024-03-16T09:15:00.528Z,89.42
2024-03-16T09:20:02.307Z,91.65
2024-03-16T09:25:00.639Z,92.87
2024-03-16T09:30:00.557Z,91.85
2024-03-16T09:35:00.495Z,90.03
2024-03-16T09:40:00.717Z,88.97
2024-03-16T09:45:00.382Z,84.4
2024-03-16T09:50:00.450Z,81.03
2024-03-16T09:55:00.603Z,78.56
2024-03-16T10:00:00.537Z,76.47
2024-03-16T10:05:00.372Z,78.49
2024-03-16T10:10:00.791Z,77.68
2024-03-16T10:15:00.499Z,75.41
2024-03-16T10:20:00.498Z,74.36
2024-03-16T10:25:00.653Z,73.18
2024-03-16T10:30:00.448Z,73.35
2024-03-16T10:35:00.413Z,72.88
2024-03-16T10:40:00.666Z,73.73
2024-03-16T10:45:00.410Z,77.96
2024-03-16T10:50:00.482Z,81.89
2024-03-16T10:55:00.382Z,81.42
2024-03-16T11:00:00.521Z,78.2
2024-03-16T11:05:00.407Z,75.59
2024-03-16T11:10:00.482Z,71.87
2024-03-16T11:15:00.648Z,71.13
2024-03-16T11:20:00.475Z,71.22
2024-03-16T11:25:00.417Z,70.93
2024-03-16T11:30:00.609Z,70.38
2024-03-16T11:35:00.417Z,70.08
2024-03-16T11:40:00.513Z,69.03
2024-03-16T11:45:00.481Z,68.03
2024-03-16T11:50:00.544Z,65.57
2024-03-16T11:55:07.444Z,64.53
2024-03-16T12:00:00.450Z,62.39
2024-03-16T12:05:00.997Z,61.92
2024-03-16T12:10:00.492Z,65.07
2024-03-16T12:15:00.438Z,74.06
2024-03-16T12:20:00.413Z,83.28
2024-03-16T12:25:00.413Z,87.94
2024-03-16T12:30:00.467Z,91.22
2024-03-16T12:35:00.380Z,92.49
2024-03-16T12:40:00.855Z,93.65
2024-03-16T12:45:00.402Z,94.67
2024-03-16T12:50:00.436Z,94.58
2024-03-16T12:55:00.451Z,94.58
2024-03-16T13:00:00.537Z,97.71
2024-03-16T13:05:00.873Z,92.97
2024-03-16T13:10:00.523Z,89.23
2024-03-16T13:15:00.418Z,86.08
2024-03-16T13:20:00.393Z,80.64
2024-03-16T13:25:00.491Z,79.2
2024-03-16T13:30:00.519Z,78.29
2024-03-16T13:35:01.061Z,78.87
2024-03-16T13:40:00.425Z,82.2
2024-03-16T13:45:00.424Z,86.89
2024-03-16T13:50:00.483Z,87.65
2024-03-16T13:55:00.516Z,86.32
2024-03-16T14:00:00.421Z,81.88
2024-03-16T14:05:03.889Z,83.11
2024-03-16T14:10:00.587Z,84.27
2024-03-16T14:15:00.454Z,86.32
2024-03-16T14:20:00.463Z,90.74
2024-03-16T14:25:00.492Z,94.14
2024-03-16T14:30:01.058Z,96.27
2024-03-16T14:35:00.415Z,97.45
2024-03-16T14:40:00.790Z,98.1
2024-03-16T14:45:00.440Z,99.18
2024-03-16T14:50:00.571Z,99.38
2024-03-16T14:55:00.381Z,99.99
2024-03-16T15:00:00.445Z,99.99
2024-03-16T15:05:00.373Z,99.99
2024-03-16T15:10:00.523Z,99.99
2024-03-16T15:15:00.416Z,99.99
2024-03-16T15:20:00.694Z,99.99
2024-03-16T15:25:00.444Z,99.99
2024-03-16T15:30:00.622Z,99.99
2024-03-16T15:35:00.513Z,99.99
2024-03-16T15:40:00.949Z,99.99
2024-03-16T15:45:03.133Z,99.99
2024-03-16T15:50:00.522Z,99.99
2024-03-16T15:55:00.367Z,99.99
2024-03-16T16:00:00.529Z,99.99
2024-03-16T16:05:00.466Z,99.99
2024-03-16T16:10:00.419Z,99.99
2024-03-16T16:15:00.563Z,99.99
2024-03-16T16:20:00.466Z,99.99
2024-03-16T16:25:00.387Z,99.62
2024-03-16T16:30:00.468Z,98.6
2024-03-16T16:35:00.437Z,97.46
2024-03-16T16:40:00.411Z,96.28
2024-03-16T16:45:00.625Z,96.38
2024-03-16T16:50:00.365Z,96.48
2024-03-16T16:55:05.495Z,95.5
2024-03-16T17:00:00.439Z,96.18
2024-03-16T17:05:00.645Z,90.73
2024-03-16T17:10:00.421Z,89.13
2024-03-16T17:15:00.468Z,88.41
2024-03-16T17:20:00.421Z,86.97
2024-03-16T17:25:00.429Z,86.86
2024-03-16T17:30:00.412Z,87.52
2024-03-16T17:35:00.434Z,87.22
2024-03-16T17:40:00.502Z,85.16
2024-03-16T17:45:00.427Z,85.2
2024-03-16T17:50:00.376Z,84.07
2024-03-16T17:55:00.402Z,85.09
2024-03-16T18:00:00.428Z,84.48
2024-03-16T18:05:00.417Z,83.44
2024-03-16T18:10:00.511Z,82.31
2024-03-16T18:15:00.483Z,82.11
2024-03-16T18:20:00.555Z,84.27
2024-03-16T18:25:00.393Z,82
2024-03-16T18:30:00.537Z,80.87
2024-03-16T18:35:00.402Z,78.71
2024-03-16T18:40:00.388Z,79.74
2024-03-16T18:45:00.424Z,80.29
2024-03-16T18:50:00.394Z,77.41
2024-03-16T18:55:00.462Z,77.51
2024-03-16T19:00:00.482Z,76.17
2024-03-16T19:05:00.405Z,77.45
2024-03-16T19:10:00.549Z,78.48
2024-03-16T19:15:00.441Z,78.48
2024-03-16T19:20:00.398Z,77.07
2024-03-16T19:25:00.484Z,77.18
2024-03-16T19:30:00.547Z,76.25
2024-03-16T19:35:00.390Z,76.97
2024-03-16T19:40:00.499Z,76.97
2024-03-16T19:45:00.450Z,76.97
2024-03-16T19:50:00.431Z,75.83
2024-03-16T19:55:00.376Z,76.97
2024-03-16T20:00:00.457Z,76.55
2024-03-16T20:05:00.525Z,76.76
2024-03-16T20:10:00.471Z,76.86
2024-03-16T20:15:00.410Z,77.07
2024-03-16T20:20:00.517Z,77.18
2024-03-16T20:25:00.378Z,77.52
2024-03-16T20:30:00.450Z,77.52
2024-03-16T20:35:00.379Z,78.27
2024-03-16T20:40:00.624Z,77.86
2024-03-16T20:45:00.353Z,77.76
2024-03-16T20:50:00.417Z,77.97
2024-03-16T20:55:00.431Z,78.48
2024-03-16T21:00:00.403Z,78.31
2024-03-16T21:05:00.373Z,78.83
2024-03-16T21:10:00.427Z,79.04
2024-03-16T21:15:00.413Z,79.38
2024-03-16T21:20:00.483Z,79.69
2024-03-16T21:25:00.450Z,80.1
2024-03-16T21:30:00.536Z,80.65
2024-03-16T21:40:00.468Z,81.52
2024-03-16T21:45:00.438Z,81.87
2024-03-16T21:50:00.380Z,82.08
2024-03-16T21:55:00.393Z,81.56
2024-03-16T22:00:00.589Z,81.31
2024-03-16T22:05:00.383Z,81
2024-03-16T22:10:00.562Z,81.21
2024-03-16T22:15:00.501Z,81.31
2024-03-16T22:20:00.448Z,81.31
2024-03-16T22:25:00.495Z,81.45
2024-03-16T22:30:00.377Z,81.56
2024-03-16T22:35:00.451Z,81.56
2024-03-16T22:40:00.588Z,81.66
2024-03-16T22:45:00.469Z,82.18
2024-03-16T22:50:00.502Z,82.28
2024-03-16T22:55:02.946Z,82.39
2024-03-16T23:00:00.379Z,83.11
2024-03-16T23:05:00.421Z,83.11
2024-03-16T23:10:00.628Z,83.77
2024-03-16T23:15:00.448Z,83.46
2024-03-16T23:20:00.468Z,83.56
2024-03-16T23:25:00.699Z,83.97
2024-03-16T23:30:00.558Z,84.39
2024-03-16T23:35:00.425Z,84.39
2024-03-16T23:40:00.726Z,84.53
2024-03-16T23:45:00.486Z,84.84
2024-03-16T23:50:00.367Z,85.05
2024-03-16T23:55:00.649Z,85.05
